sensor_id;sensor_type;location;lat;lon;timestamp;temperature;humidity
21001;DHT22;10658;50.920;12.238;2023-02-23T00:02:51;5.90;99.90
21001;DHT22;10658;50.920;12.238;2023-02-23T00:07:05;5.90;99.90
21001;DHT22;10658;50.920;12.238;2023-02-23T00:11:08;5.90;99.90
21001;DHT22;10658;50.920;12.238;2023-02-23T00:15:15;5.90;99.90
21001;DHT22;10658;50.920;12.238;2023-02-23T00:19:17;5.80;99.90
21001;DHT22;10658;50.920;12.238;2023-02-23T00:23:20;5.80;99.90
21001;DHT22;10658;50.920;12.238;2023-02-23T00:27:25;5.80;99.90
21001;DHT22;10658;50.920;12.238;2023-02-23T00:31:27;5.80;99.90
21001;DHT22;10658;50.920;12.238;2023-02-23T00:35:33;5.80;99.90
21001;DHT22;10658;50.920;12.238;2023-02-23T00:39:36;5.90;99.90
21001;DHT22;10658;50.920;12.238;2023-02-23T00:43:41;5.90;99.90
21001;DHT22;10658;50.920;12.238;2023-02-23T00:47:53;6.00;99.90
21001;DHT22;10658;50.920;12.238;2023-02-23T00:51:56;6.00;99.90
21001;DHT22;10658;50.920;12.238;2023-02-23T00:56:05;6.00;99.90
21001;DHT22;10658;50.920;12.238;2023-02-23T01:00:13;6.00;99.90
21001;DHT22;10658;50.920;12.238;2023-02-23T01:04:20;6.00;99.90
21001;DHT22;10658;50.920;12.238;2023-02-23T01:08:25;6.10;99.90
21001;DHT22;10658;50.920;12.238;2023-02-23T01:12:30;6.10;99.90
21001;DHT22;10658;50.920;12.238;2023-02-23T01:16:34;6.20;99.90
21001;DHT22;10658;50.920;12.238;2023-02-23T01:20:37;6.20;99.90
21001;DHT22;10658;50.920;12.238;2023-02-23T01:24:39;6.30;99.90
21001;DHT22;10658;50.920;12.238;2023-02-23T01:28:50;6.50;99.90
21001;DHT22;10658;50.920;12.238;2023-02-23T01:32:52;6.40;99.90
21001;DHT22;10658;50.920;12.238;2023-02-23T01:36:57;6.40;99.90
21001;DHT22;10658;50.920;12.238;2023-02-23T01:41:00;6.40;99.90
21001;DHT22;10658;50.920;12.238;2023-02-23T01:45:23;6.30;99.90
21001;DHT22;10658;50.920;12.238;2023-02-23T01:49:28;6.30;99.90
21001;DHT22;10658;50.920;12.238;2023-02-23T01:53:35;6.30;99.90
21001;DHT22;10658;50.920;12.238;2023-02-23T01:57:37;6.30;99.90
21001;DHT22;10658;50.920;12.238;2023-02-23T02:01:39;6.40;99.90
21001;DHT22;10658;50.920;12.238;2023-02-23T02:05:49;6.40;99.90
21001;DHT22;10658;50.920;12.238;2023-02-23T02:09:53;6.40;99.90
21001;DHT22;10658;50.920;12.238;2023-02-23T02:14:29;6.40;99.90
21001;DHT22;10658;50.920;12.238;2023-02-23T02:41:24;6.40;99.90
21001;DHT22;10658;50.920;12.238;2023-02-23T02:46:05;6.40;99.90
21001;DHT22;10658;50.920;12.238;2023-02-23T02:54:47;6.40;99.90
21001;DHT22;10658;50.920;12.238;2023-02-23T02:59:18;6.30;99.90
21001;DHT22;10658;50.920;12.238;2023-02-23T03:03:46;6.20;99.90
21001;DHT22;10658;50.920;12.238;2023-02-23T03:08:34;6.20;99.90
21001;DHT22;10658;50.920;12.238;2023-02-23T03:17:49;6.20;99.90
21001;DHT22;10658;50.920;12.238;2023-02-23T03:22:28;6.20;99.90
21001;DHT22;10658;50.920;12.238;2023-02-23T03:27:04;6.20;99.90
21001;DHT22;10658;50.920;12.238;2023-02-23T03:32:09;6.20;99.90
21001;DHT22;10658;50.920;12.238;2023-02-23T03:36:33;6.20;99.90
21001;DHT22;10658;50.920;12.238;2023-02-23T03:40:57;6.30;99.90
21001;DHT22;10658;50.920;12.238;2023-02-23T03:45:23;6.30;99.90
21001;DHT22;10658;50.920;12.238;2023-02-23T03:49:52;6.30;99.90
21001;DHT22;10658;50.920;12.238;2023-02-23T03:54:40;6.30;99.90
21001;DHT22;10658;50.920;12.238;2023-02-23T03:59:17;6.30;99.90
21001;DHT22;10658;50.920;12.238;2023-02-23T04:03:41;6.40;99.90
21001;DHT22;10658;50.920;12.238;2023-02-23T04:08:08;6.40;99.90
21001;DHT22;10658;50.920;12.238;2023-02-23T04:12:45;6.60;99.90
21001;DHT22;10658;50.920;12.238;2023-02-23T04:17:08;6.70;99.90
21001;DHT22;10658;50.920;12.238;2023-02-23T04:21:11;6.70;99.90
21001;DHT22;10658;50.920;12.238;2023-02-23T04:25:14;6.70;99.90
21001;DHT22;10658;50.920;12.238;2023-02-23T04:29:16;6.60;99.90
21001;DHT22;10658;50.920;12.238;2023-02-23T04:33:21;6.60;99.90
21001;DHT22;10658;50.920;12.238;2023-02-23T04:37:35;6.60;99.90
21001;DHT22;10658;50.920;12.238;2023-02-23T04:41:40;6.50;99.90
21001;DHT22;10658;50.920;12.238;2023-02-23T04:45:41;6.60;99.90
21001;DHT22;10658;50.920;12.238;2023-02-23T04:49:46;6.60;99.90
21001;DHT22;10658;50.920;12.238;2023-02-23T04:53:48;6.60;99.90
21001;DHT22;10658;50.920;12.238;2023-02-23T04:57:51;6.50;99.90
21001;DHT22;10658;50.920;12.238;2023-02-23T05:02:01;6.40;99.90
21001;DHT22;10658;50.920;12.238;2023-02-23T05:06:03;6.40;99.90
21001;DHT22;10658;50.920;12.238;2023-02-23T05:10:06;6.40;99.90
21001;DHT22;10658;50.920;12.238;2023-02-23T05:14:11;6.40;99.90
21001;DHT22;10658;50.920;12.238;2023-02-23T05:18:15;6.40;99.90
21001;DHT22;10658;50.920;12.238;2023-02-23T05:22:26;6.40;99.90
21001;DHT22;10658;50.920;12.238;2023-02-23T05:26:29;6.40;99.90
21001;DHT22;10658;50.920;12.238;2023-02-23T05:30:31;6.40;99.90
21001;DHT22;10658;50.920;12.238;2023-02-23T05:34:34;6.40;99.90
21001;DHT22;10658;50.920;12.238;2023-02-23T05:38:36;6.40;99.90
21001;DHT22;10658;50.920;12.238;2023-02-23T05:42:37;6.40;99.90
21001;DHT22;10658;50.920;12.238;2023-02-23T05:46:39;6.40;99.90
21001;DHT22;10658;50.920;12.238;2023-02-23T05:50:40;6.40;99.90
21001;DHT22;10658;50.920;12.238;2023-02-23T05:54:45;6.50;99.90
21001;DHT22;10658;50.920;12.238;2023-02-23T05:58:54;6.50;99.90
21001;DHT22;10658;50.920;12.238;2023-02-23T06:03:00;6.60;99.90
21001;DHT22;10658;50.920;12.238;2023-02-23T06:07:03;6.70;99.90
21001;DHT22;10658;50.920;12.238;2023-02-23T06:11:07;6.80;99.90
21001;DHT22;10658;50.920;12.238;2023-02-23T06:15:09;7.00;99.90
21001;DHT22;10658;50.920;12.238;2023-02-23T06:19:16;7.10;99.90
21001;DHT22;10658;50.920;12.238;2023-02-23T06:23:22;7.10;99.90
21001;DHT22;10658;50.920;12.238;2023-02-23T06:27:26;7.00;99.90
21001;DHT22;10658;50.920;12.238;2023-02-23T06:31:27;7.10;99.90
21001;DHT22;10658;50.920;12.238;2023-02-23T06:35:30;7.00;99.90
21001;DHT22;10658;50.920;12.238;2023-02-23T06:39:32;7.20;99.90
21001;DHT22;10658;50.920;12.238;2023-02-23T06:43:33;7.20;99.90
21001;DHT22;10658;50.920;12.238;2023-02-23T06:47:38;7.20;99.90
21001;DHT22;10658;50.920;12.238;2023-02-23T06:51:41;7.20;99.90
21001;DHT22;10658;50.920;12.238;2023-02-23T06:55:46;7.20;99.90
21001;DHT22;10658;50.920;12.238;2023-02-23T06:59:47;7.20;99.90
21001;DHT22;10658;50.920;12.238;2023-02-23T07:03:49;7.20;99.90
21001;DHT22;10658;50.920;12.238;2023-02-23T07:07:55;7.20;99.90
21001;DHT22;10658;50.920;12.238;2023-02-23T07:11:56;7.40;99.90
21001;DHT22;10658;50.920;12.238;2023-02-23T07:15:58;7.60;99.90
21001;DHT22;10658;50.920;12.238;2023-02-23T07:20:00;7.70;99.90
21001;DHT22;10658;50.920;12.238;2023-02-23T07:24:02;7.80;99.90
21001;DHT22;10658;50.920;12.238;2023-02-23T07:28:10;7.90;99.90
21001;DHT22;10658;50.920;12.238;2023-02-23T07:32:18;8.00;99.90
21001;DHT22;10658;50.920;12.238;2023-02-23T07:36:22;8.10;99.90
21001;DHT22;10658;50.920;12.238;2023-02-23T07:40:25;8.20;99.90
21001;DHT22;10658;50.920;12.238;2023-02-23T07:44:31;8.30;99.90
21001;DHT22;10658;50.920;12.238;2023-02-23T07:48:35;8.30;99.90
21001;DHT22;10658;50.920;12.238;2023-02-23T07:52:37;8.40;99.90
21001;DHT22;10658;50.920;12.238;2023-02-23T07:56:40;8.40;99.90
21001;DHT22;10658;50.920;12.238;2023-02-23T08:00:42;8.50;99.90
21001;DHT22;10658;50.920;12.238;2023-02-23T08:04:45;8.70;99.90
21001;DHT22;10658;50.920;12.238;2023-02-23T08:08:49;8.80;99.90
21001;DHT22;10658;50.920;12.238;2023-02-23T08:12:53;9.00;99.90
21001;DHT22;10658;50.920;12.238;2023-02-23T08:16:56;9.10;99.90
21001;DHT22;10658;50.920;12.238;2023-02-23T08:21:02;9.20;99.90
21001;DHT22;10658;50.920;12.238;2023-02-23T08:25:04;9.30;99.90
21001;DHT22;10658;50.920;12.238;2023-02-23T08:29:09;9.40;99.90
21001;DHT22;10658;50.920;12.238;2023-02-23T08:33:13;9.40;99.90
21001;DHT22;10658;50.920;12.238;2023-02-23T08:37:15;9.50;99.90
21001;DHT22;10658;50.920;12.238;2023-02-23T08:41:17;9.60;99.90
21001;DHT22;10658;50.920;12.238;2023-02-23T08:45:21;9.60;99.90
21001;DHT22;10658;50.920;12.238;2023-02-23T08:49:27;9.70;99.90
21001;DHT22;10658;50.920;12.238;2023-02-23T08:53:32;9.80;99.90
21001;DHT22;10658;50.920;12.238;2023-02-23T08:57:35;10.00;99.90
21001;DHT22;10658;50.920;12.238;2023-02-23T09:01:38;10.10;99.90
21001;DHT22;10658;50.920;12.238;2023-02-23T09:05:40;10.20;99.90
21001;DHT22;10658;50.920;12.238;2023-02-23T09:09:44;10.30;99.90
21001;DHT22;10658;50.920;12.238;2023-02-23T09:13:46;10.30;99.90
21001;DHT22;10658;50.920;12.238;2023-02-23T09:17:48;10.30;99.90
21001;DHT22;10658;50.920;12.238;2023-02-23T09:21:50;10.30;99.90
21001;DHT22;10658;50.920;12.238;2023-02-23T09:25:53;10.40;99.90
21001;DHT22;10658;50.920;12.238;2023-02-23T09:29:56;10.50;99.90
21001;DHT22;10658;50.920;12.238;2023-02-23T09:33:57;10.60;99.90
21001;DHT22;10658;50.920;12.238;2023-02-23T09:38:05;10.70;99.90
21001;DHT22;10658;50.920;12.238;2023-02-23T09:46:35;11.10;99.90
21001;DHT22;10658;50.920;12.238;2023-02-23T09:50:45;11.00;99.90
21001;DHT22;10658;50.920;12.238;2023-02-23T09:54:47;11.30;99.90
21001;DHT22;10658;50.920;12.238;2023-02-23T09:58:51;11.40;99.90
21001;DHT22;10658;50.920;12.238;2023-02-23T10:11:45;12.10;99.90
21001;DHT22;10658;50.920;12.238;2023-02-23T10:16:02;12.30;99.90
21001;DHT22;10658;50.920;12.238;2023-02-23T10:20:40;12.50;99.90
21001;DHT22;10658;50.920;12.238;2023-02-23T10:24:56;12.50;99.90
21001;DHT22;10658;50.920;12.238;2023-02-23T10:29:03;12.60;99.90
21001;DHT22;10658;50.920;12.238;2023-02-23T10:37:17;12.70;99.90
21001;DHT22;10658;50.920;12.238;2023-02-23T10:41:23;12.70;99.90
21001;DHT22;10658;50.920;12.238;2023-02-23T10:45:27;12.80;99.90
21001;DHT22;10658;50.920;12.238;2023-02-23T10:49:52;12.80;99.90
21001;DHT22;10658;50.920;12.238;2023-02-23T10:53:54;12.90;99.90
21001;DHT22;10658;50.920;12.238;2023-02-23T11:02:25;12.80;99.90
21001;DHT22;10658;50.920;12.238;2023-02-23T11:10:32;12.70;99.90
21001;DHT22;10658;50.920;12.238;2023-02-23T11:14:34;12.60;99.90
21001;DHT22;10658;50.920;12.238;2023-02-23T11:18:38;12.70;99.90
21001;DHT22;10658;50.920;12.238;2023-02-23T11:22:41;12.60;99.90
21001;DHT22;10658;50.920;12.238;2023-02-23T11:26:44;12.70;99.90
21001;DHT22;10658;50.920;12.238;2023-02-23T11:30:47;12.70;99.90
21001;DHT22;10658;50.920;12.238;2023-02-23T11:35:16;12.70;99.90
21001;DHT22;10658;50.920;12.238;2023-02-23T11:39:28;13.00;99.90
21001;DHT22;10658;50.920;12.238;2023-02-23T11:43:30;13.10;99.90
21001;DHT22;10658;50.920;12.238;2023-02-23T11:47:37;13.30;99.90
21001;DHT22;10658;50.920;12.238;2023-02-23T11:51:47;13.10;99.90
21001;DHT22;10658;50.920;12.238;2023-02-23T11:55:53;13.20;99.90
21001;DHT22;10658;50.920;12.238;2023-02-23T12:00:00;13.50;99.90
21001;DHT22;10658;50.920;12.238;2023-02-23T12:04:39;13.40;99.90
21001;DHT22;10658;50.920;12.238;2023-02-23T12:08:49;13.30;99.90
21001;DHT22;10658;50.920;12.238;2023-02-23T12:13:35;13.10;99.90
21001;DHT22;10658;50.920;12.238;2023-02-23T12:17:48;13.00;99.90
21001;DHT22;10658;50.920;12.238;2023-02-23T12:22:04;13.00;99.90
21001;DHT22;10658;50.920;12.238;2023-02-23T12:31:48;13.20;99.90
21001;DHT22;10658;50.920;12.238;2023-02-23T12:40:29;13.20;99.90
21001;DHT22;10658;50.920;12.238;2023-02-23T12:44:42;13.20;99.90
21001;DHT22;10658;50.920;12.238;2023-02-23T12:58:22;13.50;99.90
21001;DHT22;10658;50.920;12.238;2023-02-23T13:07:01;13.40;99.90
21001;DHT22;10658;50.920;12.238;2023-02-23T13:15:46;13.20;99.90
21001;DHT22;10658;50.920;12.238;2023-02-23T13:20:20;13.20;99.90
21001;DHT22;10658;50.920;12.238;2023-02-23T13:24:26;13.20;99.90
21001;DHT22;10658;50.920;12.238;2023-02-23T13:32:49;13.00;99.90
21001;DHT22;10658;50.920;12.238;2023-02-23T13:36:52;12.80;99.90
21001;DHT22;10658;50.920;12.238;2023-02-23T13:41:23;12.90;99.90
21001;DHT22;10658;50.920;12.238;2023-02-23T13:54:30;12.70;99.90
21001;DHT22;10658;50.920;12.238;2023-02-23T13:58:32;12.60;99.90
21001;DHT22;10658;50.920;12.238;2023-02-23T14:02:38;12.50;99.90
21001;DHT22;10658;50.920;12.238;2023-02-23T14:06:53;12.50;99.90
21001;DHT22;10658;50.920;12.238;2023-02-23T14:10:57;12.40;99.90
21001;DHT22;10658;50.920;12.238;2023-02-23T14:19:41;12.20;99.90
21001;DHT22;10658;50.920;12.238;2023-02-23T14:32:37;12.20;99.90
21001;DHT22;10658;50.920;12.238;2023-02-23T14:36:44;12.30;99.90
21001;DHT22;10658;50.920;12.238;2023-02-23T14:40:48;12.40;99.90
21001;DHT22;10658;50.920;12.238;2023-02-23T14:44:49;12.40;99.90
21001;DHT22;10658;50.920;12.238;2023-02-23T14:49:05;12.40;99.90
21001;DHT22;10658;50.920;12.238;2023-02-23T14:53:24;12.30;99.90
21001;DHT22;10658;50.920;12.238;2023-02-23T14:57:29;12.30;99.90
21001;DHT22;10658;50.920;12.238;2023-02-23T15:01:38;12.20;99.90
21001;DHT22;10658;50.920;12.238;2023-02-23T15:05:53;12.10;99.90
21001;DHT22;10658;50.920;12.238;2023-02-23T15:09:56;12.00;99.90
21001;DHT22;10658;50.920;12.238;2023-02-23T15:13:59;12.00;99.90
21001;DHT22;10658;50.920;12.238;2023-02-23T15:18:05;11.90;99.90
21001;DHT22;10658;50.920;12.238;2023-02-23T15:22:06;11.80;99.90
21001;DHT22;10658;50.920;12.238;2023-02-23T15:26:33;11.70;99.90
21001;DHT22;10658;50.920;12.238;2023-02-23T15:30:47;11.60;99.90
21001;DHT22;10658;50.920;12.238;2023-02-23T15:34:54;11.50;99.90
21001;DHT22;10658;50.920;12.238;2023-02-23T15:39:05;11.30;99.90
21001;DHT22;10658;50.920;12.238;2023-02-23T15:43:13;11.10;99.90
21001;DHT22;10658;50.920;12.238;2023-02-23T15:47:22;11.00;99.90
21001;DHT22;10658;50.920;12.238;2023-02-23T15:51:35;10.90;99.90
21001;DHT22;10658;50.920;12.238;2023-02-23T15:55:41;10.80;99.90
21001;DHT22;10658;50.920;12.238;2023-02-23T15:59:45;10.70;99.90
21001;DHT22;10658;50.920;12.238;2023-02-23T16:08:24;10.50;99.90
21001;DHT22;10658;50.920;12.238;2023-02-23T16:12:31;10.50;99.90
21001;DHT22;10658;50.920;12.238;2023-02-23T16:16:34;10.50;99.90
21001;DHT22;10658;50.920;12.238;2023-02-23T16:20:45;10.50;99.90
21001;DHT22;10658;50.920;12.238;2023-02-23T16:24:58;10.50;99.90
21001;DHT22;10658;50.920;12.238;2023-02-23T16:29:02;10.40;99.90
21001;DHT22;10658;50.920;12.238;2023-02-23T16:33:24;10.40;99.90
21001;DHT22;10658;50.920;12.238;2023-02-23T16:37:26;10.40;99.90
21001;DHT22;10658;50.920;12.238;2023-02-23T16:41:32;10.30;99.90
21001;DHT22;10658;50.920;12.238;2023-02-23T16:45:34;10.20;99.90
21001;DHT22;10658;50.920;12.238;2023-02-23T16:49:36;10.20;99.90
21001;DHT22;10658;50.920;12.238;2023-02-23T16:53:37;10.10;99.90
21001;DHT22;10658;50.920;12.238;2023-02-23T16:57:45;10.10;99.90
21001;DHT22;10658;50.920;12.238;2023-02-23T17:01:52;10.10;99.90
21001;DHT22;10658;50.920;12.238;2023-02-23T17:05:56;10.10;99.90
21001;DHT22;10658;50.920;12.238;2023-02-23T17:09:59;10.10;99.90
21001;DHT22;10658;50.920;12.238;2023-02-23T17:14:01;10.00;99.90
21001;DHT22;10658;50.920;12.238;2023-02-23T17:18:03;10.00;99.90
21001;DHT22;10658;50.920;12.238;2023-02-23T17:22:06;10.00;99.90
21001;DHT22;10658;50.920;12.238;2023-02-23T17:26:10;10.00;99.90
21001;DHT22;10658;50.920;12.238;2023-02-23T17:30:13;9.90;99.90
21001;DHT22;10658;50.920;12.238;2023-02-23T17:34:14;9.90;99.90
21001;DHT22;10658;50.920;12.238;2023-02-23T17:38:17;9.90;99.90
21001;DHT22;10658;50.920;12.238;2023-02-23T17:42:28;9.90;99.90
21001;DHT22;10658;50.920;12.238;2023-02-23T17:46:57;9.90;99.90
21001;DHT22;10658;50.920;12.238;2023-02-23T17:51:03;9.90;99.90
21001;DHT22;10658;50.920;12.238;2023-02-23T17:55:06;9.90;99.90
21001;DHT22;10658;50.920;12.238;2023-02-23T17:59:09;9.90;99.90
21001;DHT22;10658;50.920;12.238;2023-02-23T18:03:14;9.90;99.90
21001;DHT22;10658;50.920;12.238;2023-02-23T18:07:22;9.80;99.90
21001;DHT22;10658;50.920;12.238;2023-02-23T18:11:24;9.80;99.90
21001;DHT22;10658;50.920;12.238;2023-02-23T18:15:25;9.80;99.90
21001;DHT22;10658;50.920;12.238;2023-02-23T18:19:30;9.70;99.90
21001;DHT22;10658;50.920;12.238;2023-02-23T18:23:31;9.60;99.90
21001;DHT22;10658;50.920;12.238;2023-02-23T18:27:36;9.60;99.90
21001;DHT22;10658;50.920;12.238;2023-02-23T18:31:40;9.60;99.90
21001;DHT22;10658;50.920;12.238;2023-02-23T18:35:45;9.60;99.90
21001;DHT22;10658;50.920;12.238;2023-02-23T18:39:51;9.60;99.90
21001;DHT22;10658;50.920;12.238;2023-02-23T18:43:53;9.60;99.90
21001;DHT22;10658;50.920;12.238;2023-02-23T18:47:54;9.50;99.90
21001;DHT22;10658;50.920;12.238;2023-02-23T18:51:57;9.50;99.90
21001;DHT22;10658;50.920;12.238;2023-02-23T18:56:03;9.50;99.90
21001;DHT22;10658;50.920;12.238;2023-02-23T19:00:06;9.50;99.90
21001;DHT22;10658;50.920;12.238;2023-02-23T19:04:12;9.50;99.90
21001;DHT22;10658;50.920;12.238;2023-02-23T19:08:16;9.50;99.90
21001;DHT22;10658;50.920;12.238;2023-02-23T19:12:18;9.50;99.90
21001;DHT22;10658;50.920;12.238;2023-02-23T19:16:49;9.50;99.90
21001;DHT22;10658;50.920;12.238;2023-02-23T19:21:01;9.50;99.90
21001;DHT22;10658;50.920;12.238;2023-02-23T19:25:04;9.60;99.90
21001;DHT22;10658;50.920;12.238;2023-02-23T19:29:06;9.50;99.90
21001;DHT22;10658;50.920;12.238;2023-02-23T19:33:17;9.50;99.90
21001;DHT22;10658;50.920;12.238;2023-02-23T19:37:19;9.50;99.90
21001;DHT22;10658;50.920;12.238;2023-02-23T19:41:21;9.50;99.90
21001;DHT22;10658;50.920;12.238;2023-02-23T19:45:23;9.50;99.90
21001;DHT22;10658;50.920;12.238;2023-02-23T19:49:25;9.50;99.90
21001;DHT22;10658;50.920;12.238;2023-02-23T19:53:31;9.50;99.90
21001;DHT22;10658;50.920;12.238;2023-02-23T19:57:37;9.50;99.90
21001;DHT22;10658;50.920;12.238;2023-02-23T20:01:39;9.50;99.90
21001;DHT22;10658;50.920;12.238;2023-02-23T20:05:48;9.40;99.90
21001;DHT22;10658;50.920;12.238;2023-02-23T20:09:49;9.40;99.90
21001;DHT22;10658;50.920;12.238;2023-02-23T20:13:54;9.40;99.90
21001;DHT22;10658;50.920;12.238;2023-02-23T20:18:20;9.40;99.90
21001;DHT22;10658;50.920;12.238;2023-02-23T20:22:23;9.30;99.90
21001;DHT22;10658;50.920;12.238;2023-02-23T20:26:27;9.30;99.90
21001;DHT22;10658;50.920;12.238;2023-02-23T20:30:29;9.40;99.90
21001;DHT22;10658;50.920;12.238;2023-02-23T20:34:31;9.30;99.90
21001;DHT22;10658;50.920;12.238;2023-02-23T20:38:32;9.30;99.90
21001;DHT22;10658;50.920;12.238;2023-02-23T20:42:37;9.30;99.90
21001;DHT22;10658;50.920;12.238;2023-02-23T20:46:41;9.30;99.90
21001;DHT22;10658;50.920;12.238;2023-02-23T20:50:45;9.30;99.90
21001;DHT22;10658;50.920;12.238;2023-02-23T20:54:49;9.30;99.90
21001;DHT22;10658;50.920;12.238;2023-02-23T20:58:51;9.20;99.90
21001;DHT22;10658;50.920;12.238;2023-02-23T21:02:54;9.20;99.90
21001;DHT22;10658;50.920;12.238;2023-02-23T21:06:56;9.10;99.90
21001;DHT22;10658;50.920;12.238;2023-02-23T21:11:07;9.20;99.90
21001;DHT22;10658;50.920;12.238;2023-02-23T21:15:09;9.30;99.90
21001;DHT22;10658;50.920;12.238;2023-02-23T21:19:17;9.30;99.90
21001;DHT22;10658;50.920;12.238;2023-02-23T21:23:24;9.20;99.90
21001;DHT22;10658;50.920;12.238;2023-02-23T21:27:26;9.10;99.90
21001;DHT22;10658;50.920;12.238;2023-02-23T21:31:29;9.10;99.90
21001;DHT22;10658;50.920;12.238;2023-02-23T21:35:33;8.90;99.90
21001;DHT22;10658;50.920;12.238;2023-02-23T21:39:38;8.80;99.90
21001;DHT22;10658;50.920;12.238;2023-02-23T21:43:42;8.80;99.90
21001;DHT22;10658;50.920;12.238;2023-02-23T21:47:45;8.70;99.90
21001;DHT22;10658;50.920;12.238;2023-02-23T21:51:47;8.70;99.90
21001;DHT22;10658;50.920;12.238;2023-02-23T21:55:49;8.70;99.90
21001;DHT22;10658;50.920;12.238;2023-02-23T21:59:54;8.60;99.90
21001;DHT22;10658;50.920;12.238;2023-02-23T22:03:56;8.60;99.90
21001;DHT22;10658;50.920;12.238;2023-02-23T22:07:59;8.60;99.90
21001;DHT22;10658;50.920;12.238;2023-02-23T22:12:02;8.60;99.90
